Time;durP1;ratioP1;P1;durP2;ratioP2;P2;SDS_P1;SDS_P2;PMS_P1;PMS_P2;Temp;Humidity;BMP_temperature;BMP_pressure;BME280_temperature;BME280_humidity;BME280_pressure;Samples;Min_cycle;Max_cycle;Signal;HPM_P1;HPM_P2
2024/02/14 00:03:23;;;;;;;0.00;0.00;;;;;;;3.47;74.40;101448.66;15871575;27;20059;-50
2024/02/14 00:11:17;;;;;;;1.15;0.40;;;;;;;3.72;73.62;101453.25;15857539;28;20423;-52
2024/02/14 00:18:51;;;;;;;0.00;0.00;;;;;;;3.39;74.66;101430.78;15901102;27;20038;-55
2024/02/14 00:26:28;;;;;;;0.00;0.00;;;;;;;3.13;76.21;101453.69;15924576;27;20500;-48
2024/02/14 00:34:02;;;;;;;0.20;0.20;;;;;;;3.65;73.92;101459.34;15905599;27;20047;-49
2024/02/14 00:41:37;;;;;;;0.10;0.10;;;;;;;3.76;73.41;101459.94;15925697;27;20077;-50
2024/02/14 00:49:21;;;;;;;0.00;0.00;;;;;;;3.82;73.38;101458.53;15863430;27;20503;-51
2024/02/14 00:56:56;;;;;;;0.00;0.00;;;;;;;3.90;72.65;101463.09;15842046;28;20050;-51
2024/02/14 01:04:30;;;;;;;0.47;0.47;;;;;;;3.54;72.89;101463.00;15864597;27;20075;-51
2024/02/14 01:12:05;;;;;;;;;;;;;;;3.74;73.15;101461.94;15863677;28;20036;-54
2024/02/14 01:19:38;;;;;;;0.08;0.08;;;;;;;3.80;73.06;101461.34;15844795;28;19919;-49
2024/02/14 01:27:13;;;;;;;0.32;0.32;;;;;;;3.82;73.27;101445.25;15862766;28;20240;-50
2024/02/14 01:34:47;;;;;;;0.10;0.10;;;;;;;3.75;73.40;101436.22;15826857;28;20051;-51
2024/02/14 01:42:22;;;;;;;0.17;0.17;;;;;;;3.78;73.16;101426.13;15857826;28;20096;-49
2024/02/14 01:49:56;;;;;;;0.13;0.13;;;;;;;3.43;73.73;101431.34;15840223;28;20056;-52
2024/02/14 01:57:32;;;;;;;0.80;0.75;;;;;;;3.53;74.23;101421.50;15861179;28;20036;-49
2024/02/14 02:05:06;;;;;;;0.00;0.00;;;;;;;3.57;74.80;101421.06;15907945;27;20050;-50
2024/02/14 02:12:43;;;;;;;0.00;0.00;;;;;;;3.23;75.70;101412.03;15934976;27;20043;-51
2024/02/14 02:20:18;;;;;;;0.00;0.00;;;;;;;3.29;75.23;101408.78;15937597;27;20144;-53
2024/02/14 02:27:54;;;;;;;0.10;0.10;;;;;;;3.43;74.67;101397.69;15916185;27;20051;-49
2024/02/14 02:35:30;;;;;;;0.13;0.13;;;;;;;3.64;74.29;101392.13;15850382;28;20084;-51
2024/02/14 02:43:07;;;;;;;0.00;0.00;;;;;;;3.37;75.77;101398.28;15837241;28;20039;-54
2024/02/14 02:50:41;;;;;;;0.10;0.10;;;;;;;3.30;75.18;101383.91;15873292;28;20066;-49
2024/02/14 02:58:16;;;;;;;0.00;0.00;;;;;;;3.37;75.64;101386.84;15831470;28;20142;-49
2024/02/14 03:05:55;;;;;;;3.55;1.15;;;;;;;3.18;75.69;101377.16;15864730;27;20043;-52
2024/02/14 03:13:30;;;;;;;0.00;0.00;;;;;;;3.18;76.51;101359.41;15880571;28;20062;-50
2024/02/14 03:21:06;;;;;;;0.10;0.10;;;;;;;2.96;76.75;101365.09;15862629;27;20109;-49
2024/02/14 03:28:41;;;;;;;0.00;0.00;;;;;;;2.94;77.06;101369.72;15915428;27;20047;-51
2024/02/14 03:36:16;;;;;;;0.00;0.00;;;;;;;2.88;77.97;101351.72;15919995;27;20040;-51
2024/02/14 03:43:52;;;;;;;0.05;0.03;;;;;;;2.69;78.75;101339.34;15868513;28;20058;-55
2024/02/14 03:51:27;;;;;;;0.00;0.00;;;;;;;2.81;78.71;101341.69;15865573;28;20047;-52
2024/02/14 03:59:05;;;;;;;0.00;0.00;;;;;;;2.55;79.95;101346.78;15879153;22;20058;-51
2024/02/14 04:06:40;;;;;;;0.10;0.10;;;;;;;2.71;79.36;101340.91;15857185;28;20056;-50
2024/02/14 04:14:16;;;;;;;0.63;0.63;;;;;;;2.93;78.61;101352.94;15836016;28;20109;-46
2024/02/14 04:21:53;;;;;;;0.10;0.10;;;;;;;3.00;78.87;101346.09;15852978;28;20191;-50
2024/02/14 04:29:32;;;;;;;0.00;0.00;;;;;;;3.33;77.65;101338.53;15853674;28;20522;-47
2024/02/14 04:37:10;;;;;;;0.00;0.00;;;;;;;3.15;78.41;101338.47;15853670;28;20138;-45
2024/02/14 04:44:47;;;;;;;0.10;0.10;;;;;;;3.52;77.04;101335.75;15848992;28;20491;-49
2024/02/14 04:52:21;;;;;;;0.82;0.60;;;;;;;3.45;77.29;101332.03;15846357;28;20050;-49
2024/02/14 04:59:57;;;;;;;0.20;0.20;;;;;;;3.52;76.51;101330.44;15850838;28;20483;-50
2024/02/14 05:07:34;;;;;;;0.85;0.85;;;;;;;3.44;77.78;101306.47;15849380;28;20496;-46
2024/02/14 05:15:10;;;;;;;0.00;0.00;;;;;;;3.39;77.77;101284.03;15854068;28;20121;-46
2024/02/14 05:22:44;;;;;;;0.00;0.00;;;;;;;3.69;76.80;101296.94;15854702;28;20048;-49
2024/02/14 05:30:24;;;;;;;0.08;0.08;;;;;;;3.67;76.93;101274.19;15855203;28;20049;-50
2024/02/14 05:37:58;;;;;;;0.32;0.25;;;;;;;3.52;77.40;101266.75;15850678;28;20114;-48
2024/02/14 05:45:33;;;;;;;0.30;0.30;;;;;;;3.52;77.69;101268.56;15833963;28;20114;-50
2024/02/14 05:53:09;;;;;;;0.20;0.20;;;;;;;3.57;77.30;101255.69;15849777;28;20597;-52
2024/02/14 06:00:59;;;;;;;0.20;0.20;;;;;;;3.56;77.65;101262.81;15848711;28;20126;-48
2024/02/14 06:08:35;;;;;;;0.00;0.00;;;;;;;3.87;75.88;101250.94;15841190;28;20184;-50
2024/02/14 06:16:11;;;;;;;0.00;0.00;;;;;;;3.46;77.72;101262.06;15834754;28;20098;-51
2024/02/14 06:23:46;;;;;;;0.00;0.00;;;;;;;3.70;76.88;101260.63;15854582;28;20101;-45
2024/02/14 06:31:23;;;;;;;0.50;0.50;;;;;;;3.52;77.67;101250.00;15852774;28;20441;-48
2024/02/14 06:39:00;;;;;;;0.20;0.20;;;;;;;3.60;77.99;101254.56;15852546;28;20065;-44
2024/02/14 06:46:38;;;;;;;0.20;0.20;;;;;;;3.82;77.12;101241.66;15856308;28;20043;-48
2024/02/14 06:54:13;;;;;;;0.32;0.28;;;;;;;4.09;75.79;101243.31;15864019;28;20055;-49
2024/02/14 07:01:49;;;;;;;0.85;0.57;;;;;;;4.03;76.77;101243.94;15859829;28;20043;-49
2024/02/14 07:09:26;;;;;;;0.00;0.00;;;;;;;4.11;76.55;101240.53;15853000;28;20456;-47
2024/02/14 07:17:03;;;;;;;0.40;0.40;;;;;;;4.41;75.31;101239.19;15857614;28;20036;-49
2024/02/14 07:24:37;;;;;;;0.00;0.00;;;;;;;4.46;75.15;101228.91;15856745;28;20048;-45
2024/02/14 07:32:16;;;;;;;0.10;0.10;;;;;;;4.71;74.29;101240.53;15860863;28;20464;-48
2024/02/14 07:39:50;;;;;;;0.40;0.08;;;;;;;5.22;72.45;101253.81;15842283;28;20691;-51
2024/02/14 07:47:28;;;;;;;0.00;0.00;;;;;;;5.72;70.98;101253.72;15856041;28;20035;-48
2024/02/14 07:55:02;;;;;;;0.00;0.00;;;;;;;5.68;71.64;101254.22;15860972;28;20052;-47
2024/02/14 08:02:38;;;;;;;0.15;0.15;;;;;;;5.74;70.85;101249.06;15850273;27;20133;-47
2024/02/14 08:10:13;;;;;;;0.22;0.22;;;;;;;5.73;71.19;101246.56;15858532;28;20048;-47
2024/02/14 08:17:53;;;;;;;0.77;0.70;;;;;;;5.70;72.93;101234.44;15859372;28;20043;-48
2024/02/14 08:25:29;;;;;;;0.00;0.00;;;;;;;5.51;75.52;101235.56;15818381;28;20380;-47
2024/02/14 08:33:10;;;;;;;0.00;0.00;;;;;;;5.69;76.39;101227.44;15853798;28;20047;-49
2024/02/14 08:40:44;;;;;;;0.40;0.40;;;;;;;5.73;76.72;101231.41;15837498;28;20033;-46
2024/02/14 08:48:23;;;;;;;0.00;0.00;;;;;;;6.27;75.57;101225.56;15857353;28;20062;-49
2024/02/14 08:55:57;;;;;;;0.00;0.00;;;;;;;6.36;75.63;101225.38;15856497;28;20111;-43
2024/02/14 09:03:32;;;;;;;0.00;0.00;;;;;;;6.22;76.61;101228.75;15842991;27;20084;-50
2024/02/14 09:11:09;;;;;;;6.35;2.90;;;;;;;6.30;77.22;101236.72;15828158;28;20044;-46
2024/02/14 09:18:46;;;;;;;5.75;2.40;;;;;;;5.86;79.58;101239.72;15847440;28;20051;-51
2024/02/14 09:26:20;;;;;;;0.00;0.00;;;;;;;5.46;83.40;101231.75;15809252;28;20085;-48
2024/02/14 09:33:57;;;;;;;;;;;;;;;5.74;82.94;101242.91;15831744;28;20039;-48
2024/02/14 09:41:43;;;;;;;0.00;0.00;;;;;;;5.82;83.46;101227.75;15854752;28;19926;-49
2024/02/14 09:49:19;;;;;;;0.30;0.17;;;;;;;6.02;83.88;101232.78;15845324;28;20478;-49
2024/02/14 09:56:55;;;;;;;0.00;0.00;;;;;;;6.01;84.73;101236.44;15853035;22;20180;-48
2024/02/14 10:04:31;;;;;;;0.00;0.00;;;;;;;6.04;85.06;101223.59;15775077;28;20123;-48
2024/02/14 10:12:05;;;;;;;0.15;0.15;;;;;;;5.92;86.25;101230.25;15784907;28;20040;-48
2024/02/14 10:19:41;;;;;;;0.10;0.10;;;;;;;6.10;86.14;101224.75;15718690;28;20378;-47
2024/02/14 10:27:16;;;;;;;1.75;0.45;;;;;;;6.44;87.02;101208.53;15728651;28;20375;-49
2024/02/14 10:34:51;;;;;;;0.43;0.43;;;;;;;6.64;86.29;101216.97;15743001;28;20036;-51
2024/02/14 10:42:26;;;;;;;0.10;0.10;;;;;;;6.74;85.84;101219.41;15726206;28;20045;-46
2024/02/14 10:50:14;;;;;;;0.22;0.22;;;;;;;6.65;85.77;101218.63;15774344;28;20056;-46
2024/02/14 10:57:51;;;;;;;0.00;0.00;;;;;;;6.69;86.39;101205.78;15804366;28;20078;-45
2024/02/14 11:05:28;;;;;;;0.08;0.08;;;;;;;7.05;85.98;101206.09;15803125;28;20089;-48
2024/02/14 11:13:02;;;;;;;0.00;0.00;;;;;;;7.23;85.22;101197.78;15782581;28;20039;-46
2024/02/14 11:20:40;;;;;;;1.40;0.40;;;;;;;7.34;84.94;101210.75;15741467;28;20381;-44
2024/02/14 11:28:14;;;;;;;0.00;0.00;;;;;;;7.19;85.47;101202.66;15743022;28;20131;-48
2024/02/14 11:35:51;;;;;;;0.00;0.00;;;;;;;7.24;85.51;101194.97;15742649;28;20048;-51
2024/02/14 11:43:27;;;;;;;0.00;0.00;;;;;;;7.29;86.42;101200.59;15724594;28;20447;-51
2024/02/14 11:51:03;;;;;;;0.10;0.10;;;;;;;7.64;86.14;101191.13;15740258;28;20452;-51
2024/02/14 11:58:36;;;;;;;0.05;0.05;;;;;;;7.51;86.64;101203.47;15760989;28;20044;-48
2024/02/14 12:06:15;;;;;;;0.00;0.00;;;;;;;7.65;86.20;101194.66;15796942;28;20048;-50
2024/02/14 12:13:53;;;;;;;0.00;0.00;;;;;;;8.12;85.91;101199.72;15802642;28;20036;-45
2024/02/14 12:21:33;;;;;;;0.00;0.00;;;;;;;7.93;86.80;101193.06;15802216;28;20124;-49
2024/02/14 12:29:08;;;;;;;0.00;0.00;;;;;;;8.19;86.26;101197.97;15799397;28;20064;-47
2024/02/14 12:36:43;;;;;;;0.00;0.00;;;;;;;7.98;86.65;101192.53;15781553;28;20043;-47
2024/02/14 12:44:17;;;;;;;0.00;0.00;;;;;;;8.35;86.16;101196.16;15800437;28;20592;-44
2024/02/14 12:51:57;;;;;;;0.15;0.15;;;;;;;8.50;85.52;101193.50;15796514;28;20074;-48
2024/02/14 12:59:31;;;;;;;0.00;0.00;;;;;;;8.36;86.07;101197.81;15777641;28;20127;-50
2024/02/14 13:07:06;;;;;;;0.00;0.00;;;;;;;8.45;86.21;101202.09;15788943;28;20040;-45
2024/02/14 13:14:41;;;;;;;0.00;0.00;;;;;;;8.24;87.82;101205.44;15776358;28;20132;-43
2024/02/14 13:22:16;;;;;;;0.00;0.00;;;;;;;8.59;87.92;101201.25;15794895;28;20044;-48
2024/02/14 13:29:51;;;;;;;0.00;0.00;;;;;;;8.38;88.14;101193.94;15780385;28;20044;-51
2024/02/14 13:37:26;;;;;;;;;;;;;;;8.36;89.82;101204.00;15799124;28;20093;-45
2024/02/14 13:45:00;;;;;;;0.17;0.08;;;;;;;8.32;89.37;101208.03;15776531;28;19927;-48
2024/02/14 13:52:35;;;;;;;0.00;0.00;;;;;;;8.82;88.57;101201.13;15717701;28;20151;-48
2024/02/14 14:00:11;;;;;;;0.00;0.00;;;;;;;8.78;88.57;101201.69;15782357;28;20040;-47
2024/02/14 14:07:50;;;;;;;0.00;0.00;;;;;;;8.72;88.06;101208.63;15754425;28;20060;-48
2024/02/14 14:15:28;;;;;;;0.08;0.08;;;;;;;8.96;87.10;101220.03;15743994;28;20109;-48
2024/02/14 14:23:05;;;;;;;0.00;0.00;;;;;;;9.14;87.22;101220.44;15780589;28;20040;-46
2024/02/14 14:30:39;;;;;;;0.00;0.00;;;;;;;9.25;86.97;101214.59;15797604;28;20040;-47
2024/02/14 14:38:14;;;;;;;0.00;0.00;;;;;;;9.42;85.77;101216.00;15801660;28;20047;-44
2024/02/14 14:45:50;;;;;;;0.00;0.00;;;;;;;9.52;85.71;101210.31;15793582;28;20162;-51
2024/02/14 14:53:25;;;;;;;0.10;0.10;;;;;;;9.57;84.90;101212.44;15744437;28;20044;-46
2024/02/14 15:01:03;;;;;;;0.00;0.00;;;;;;;9.73;84.88;101222.88;15788024;28;20044;-45
2024/02/14 15:08:40;;;;;;;0.00;0.00;;;;;;;9.89;84.78;101225.28;15806781;28;20044;-45
2024/02/14 15:16:14;;;;;;;0.00;0.00;;;;;;;10.03;83.25;101206.63;15806146;28;20044;-48
2024/02/14 15:23:49;;;;;;;0.13;0.13;;;;;;;9.65;83.92;101225.69;15744031;28;20227;-47
2024/02/14 15:39:19;;;;;;;0.00;0.00;;;;;;;9.77;83.50;101232.19;15780958;28;20037;-51
2024/02/14 15:46:53;;;;;;;0.10;0.03;;;;;;;9.58;83.54;101244.38;15781020;28;20169;-45
2024/02/14 15:54:28;;;;;;;0.00;0.00;;;;;;;9.66;83.24;101241.59;15737547;28;20139;-49
2024/02/14 16:02:03;;;;;;;0.00;0.00;;;;;;;10.04;81.47;101252.03;15789187;28;20464;-47
2024/02/14 16:09:38;;;;;;;0.93;0.32;;;;;;;9.89;81.96;101243.25;15800212;28;20131;-46
2024/02/14 16:17:13;;;;;;;0.00;0.00;;;;;;;9.92;81.94;101242.84;15783234;28;20468;-47
2024/02/14 16:24:49;;;;;;;0.75;0.20;;;;;;;9.62;83.16;101251.03;15792082;28;20085;-48
2024/02/14 16:32:23;;;;;;;0.00;0.00;;;;;;;9.80;82.27;101253.25;15800967;28;20140;-51
2024/02/14 16:40:02;;;;;;;0.55;0.55;;;;;;;9.65;82.88;101260.53;15783296;28;20097;-46
2024/02/14 16:47:39;;;;;;;0.77;0.77;;;;;;;9.49;84.28;101253.56;15774777;28;20052;-46
2024/02/14 16:55:14;;;;;;;0.30;0.30;;;;;;;9.91;82.32;101271.50;15720046;28;20072;-51
2024/02/14 17:02:50;;;;;;;0.00;0.00;;;;;;;9.69;83.52;101268.00;15795772;28;20119;-51
2024/02/14 17:10:25;;;;;;;0.00;0.00;;;;;;;9.47;84.16;101276.25;15795828;28;20439;-46
2024/02/14 17:17:59;;;;;;;0.40;0.40;;;;;;;9.59;83.41;101272.00;15794582;28;20119;-49
2024/02/14 17:25:37;;;;;;;0.20;0.20;;;;;;;9.85;82.43;101280.31;15740602;28;20132;-51
2024/02/14 17:33:10;;;;;;;0.45;0.45;;;;;;;9.69;83.04;101281.41;15774479;28;20115;-49
2024/02/14 17:40:47;;;;;;;0.00;0.00;;;;;;;9.55;83.32;101290.31;15796371;28;20089;-46
2024/02/14 17:48:20;;;;;;;0.75;0.75;;;;;;;9.51;83.49;101296.25;15744645;28;20139;-45
2024/02/14 17:55:56;;;;;;;0.20;0.20;;;;;;;9.61;83.04;101300.31;15735504;28;20086;-45
2024/02/14 18:03:29;;;;;;;0.00;0.00;;;;;;;9.57;82.20;101299.03;15779428;28;20135;-51
2024/02/14 18:11:05;;;;;;;0.20;0.20;;;;;;;9.81;81.64;101297.00;15794906;28;20074;-50
2024/02/14 18:18:41;;;;;;;0.00;0.00;;;;;;;9.80;81.10;101296.16;15797000;28;20082;-51
2024/02/14 18:26:16;;;;;;;0.00;0.00;;;;;;;9.92;80.21;101299.97;15794016;28;20488;-49
2024/02/14 18:33:50;;;;;;;1.25;0.47;;;;;;;9.70;81.18;101283.06;15792532;28;20615;-49
2024/02/14 18:41:26;;;;;;;0.00;0.00;;;;;;;9.79;80.27;101280.25;15780787;28;20408;-50
2024/02/14 18:48:59;;;;;;;0.00;0.00;;;;;;;9.85;80.14;101280.31;15810364;28;20408;-44
2024/02/14 18:56:34;;;;;;;0.30;0.10;;;;;;;9.64;80.91;101289.19;15807510;28;20071;-51
2024/02/14 19:04:09;;;;;;;0.10;0.10;;;;;;;9.48;81.62;101305.50;15788480;28;20052;-51
2024/02/14 19:11:44;;;;;;;0.38;0.22;;;;;;;9.51;81.49;101298.94;15790802;28;20670;-48
2024/02/14 19:19:19;;;;;;;0.00;0.00;;;;;;;9.66;80.54;101302.41;15806587;28;20119;-47
2024/02/14 19:26:55;;;;;;;1.77;0.80;;;;;;;9.89;79.83;101311.09;15802273;28;20060;-46
2024/02/14 19:34:28;;;;;;;0.00;0.00;;;;;;;9.84;79.53;101310.00;15786542;28;20090;-47
2024/02/14 19:42:04;;;;;;;0.00;0.00;;;;;;;9.79;79.60;101297.19;15803727;28;20044;-48
2024/02/14 19:49:37;;;;;;;0.00;0.00;;;;;;;9.97;78.93;101297.53;15799571;28;20043;-48
2024/02/14 19:57:12;;;;;;;0.20;0.20;;;;;;;9.82;79.53;101302.16;15799480;28;20501;-48
2024/02/14 20:04:48;;;;;;;0.00;0.00;;;;;;;10.29;77.67;101298.06;15798437;28;20039;-48
2024/02/14 20:12:23;;;;;;;0.03;0.03;;;;;;;9.97;78.96;101312.81;15710984;28;20041;-47
2024/02/14 20:20:03;;;;;;;0.40;0.40;;;;;;;10.04;78.96;101305.66;15732869;28;20040;-49
2024/02/14 20:27:39;;;;;;;1.75;0.52;;;;;;;9.95;80.16;101307.66;15803370;28;20050;-50
2024/02/14 20:35:13;;;;;;;0.30;0.17;;;;;;;10.00;81.00;101306.25;15803095;28;20047;-47
2024/02/14 20:42:51;;;;;;;0.10;0.10;;;;;;;9.88;82.36;101313.94;15801620;28;20042;-48
2024/02/14 20:50:26;;;;;;;0.00;0.00;;;;;;;9.91;82.42;101308.22;15752312;28;20064;-46
2024/02/14 20:58:01;;;;;;;0.00;0.00;;;;;;;9.74;83.02;101326.41;15738553;28;20136;-45
2024/02/14 21:05:36;;;;;;;0.10;0.10;;;;;;;9.71;83.32;101332.97;15715673;28;20032;-47
2024/02/14 21:13:11;;;;;;;0.00;0.00;;;;;;;9.77;83.65;101333.25;15732612;28;20543;-48
2024/02/14 21:20:45;;;;;;;6.28;1.48;;;;;;;9.56;85.21;101326.84;15723803;28;20477;-49
2024/02/14 21:28:21;;;;;;;1.25;0.68;;;;;;;9.53;86.07;101331.75;15736506;28;20064;-50
2024/02/14 21:35:56;;;;;;;0.00;0.00;;;;;;;9.56;86.00;101320.63;15729805;28;20040;-45
2024/02/14 21:43:31;;;;;;;0.17;0.17;;;;;;;9.53;86.43;101316.50;15696012;28;20452;-47
2024/02/14 21:51:09;;;;;;;0.20;0.20;;;;;;;9.48;86.52;101326.13;15726637;28;20037;-47
2024/02/14 21:58:43;;;;;;;0.00;0.00;;;;;;;9.31;86.98;101330.84;15759520;28;20090;-45
2024/02/14 22:06:19;;;;;;;0.50;0.20;;;;;;;9.45;86.52;101317.41;15797572;28;20499;-44
2024/02/14 22:13:54;;;;;;;0.00;0.00;;;;;;;9.45;86.92;101309.38;15797319;28;20056;-49
2024/02/14 22:21:27;;;;;;;0.20;0.13;;;;;;;9.46;87.54;101302.19;15805567;28;20036;-46
2024/02/14 22:29:02;;;;;;;;;;;;;;;9.26;87.16;101306.47;15804983;28;20036;-48
2024/02/14 22:36:37;;;;;;;0.00;0.00;;;;;;;9.47;86.95;101308.41;15806192;28;19920;-45
2024/02/14 22:44:12;;;;;;;0.10;0.10;;;;;;;9.23;88.15;101314.88;15790541;28;20032;-46
2024/02/14 22:51:45;;;;;;;0.22;0.22;;;;;;;9.04;89.08;101327.81;15788650;28;20044;-45
2024/02/14 22:59:22;;;;;;;0.20;0.20;;;;;;;9.26;88.35;101303.81;15775870;28;20441;-47
2024/02/14 23:06:56;;;;;;;0.13;0.13;;;;;;;9.26;88.23;101314.50;15741125;28;20048;-44
2024/02/14 23:14:32;;;;;;;0.00;0.00;;;;;;;9.14;89.09;101298.13;15771607;28;20044;-47
2024/02/14 23:22:06;;;;;;;0.32;0.32;;;;;;;9.29;89.08;101290.88;15771363;28;20031;-45
2024/02/14 23:29:41;;;;;;;6.07;1.48;;;;;;;9.59;87.75;101296.13;15738641;28;20111;-45
2024/02/14 23:37:15;;;;;;;0.88;0.50;;;;;;;9.56;86.89;101293.81;15737876;28;20048;-47
2024/02/14 23:44:50;;;;;;;0.00;0.00;;;;;;;9.29;88.41;101285.50;15741109;28;20044;-47
2024/02/14 23:52:24;;;;;;;0.10;0.10;;;;;;;9.42;87.84;101295.56;15799899;28;20032;-50
